Dorr, Michigan
Current Conditions -  °F | °C
As of 11:53 PM on Sunday 21 Dec 2014 (Local Time) from KGRR Reporting Station
Haze Haze  
Wind Chill: 20°   Ceiling: 15000
Heat Index: 29°   Visibility: 5mi
Dew Point: 24°   Wind: 9mph
Humidity: 82%   Direction: 130°SE
Pressure: 30.11"   Gusts: NA
Location:  42.73°N, 85.72°W
Report Text: KGRR 220453Z 13008KT 5SM HZ FEW042 BKN150 M02/M04 A3011 RMK AO2 SLP204 T10171044 400171017
Loading
Personal Weather Stations






























Interactive Weather Map New forecast layout! Learn more

10-Day Weather Forecast

Advertisements
Track Severe Weather on mobile